sensor_id;sensor_type;location;lat;lon;timestamp;temperature;humidity
47521;DHT22;32291;52.010;4.446;2023-04-01T00:00:06;9.30;99.90
47521;DHT22;32291;52.010;4.446;2023-04-01T00:01:10;9.40;99.90
47521;DHT22;32291;52.010;4.446;2023-04-01T00:02:17;9.30;99.90
47521;DHT22;32291;52.010;4.446;2023-04-01T00:03:20;9.30;99.90
47521;DHT22;32291;52.010;4.446;2023-04-01T00:04:23;9.30;99.90
47521;DHT22;32291;52.010;4.446;2023-04-01T00:05:25;9.30;99.90
47521;DHT22;32291;52.010;4.446;2023-04-01T00:06:27;9.30;99.90
47521;DHT22;32291;52.010;4.446;2023-04-01T00:07:29;9.30;99.90
47521;DHT22;32291;52.010;4.446;2023-04-01T00:08:32;9.40;99.90
47521;DHT22;32291;52.010;4.446;2023-04-01T00:09:34;9.30;99.90
47521;DHT22;32291;52.010;4.446;2023-04-01T00:10:36;9.40;99.90
47521;DHT22;32291;52.010;4.446;2023-04-01T00:11:37;9.30;99.90
47521;DHT22;32291;52.010;4.446;2023-04-01T00:12:40;9.40;99.90
47521;DHT22;32291;52.010;4.446;2023-04-01T00:13:42;9.40;99.90
47521;DHT22;32291;52.010;4.446;2023-04-01T00:14:44;9.40;99.90
47521;DHT22;32291;52.010;4.446;2023-04-01T00:15:46;9.40;99.90
47521;DHT22;32291;52.010;4.446;2023-04-01T00:16:47;9.30;99.90
47521;DHT22;32291;52.010;4.446;2023-04-01T00:17:49;9.30;99.90
47521;DHT22;32291;52.010;4.446;2023-04-01T00:18:51;9.40;99.90
47521;DHT22;32291;52.010;4.446;2023-04-01T00:19:55;9.30;99.90
47521;DHT22;32291;52.010;4.446;2023-04-01T00:20:57;9.30;99.90
47521;DHT22;32291;52.010;4.446;2023-04-01T00:21:58;9.30;99.90
47521;DHT22;32291;52.010;4.446;2023-04-01T00:23:00;9.30;99.90
47521;DHT22;32291;52.010;4.446;2023-04-01T00:24:02;9.30;99.90
47521;DHT22;32291;52.010;4.446;2023-04-01T00:25:05;9.30;99.90
47521;DHT22;32291;52.010;4.446;2023-04-01T00:26:07;9.30;99.90
47521;DHT22;32291;52.010;4.446;2023-04-01T00:27:08;9.30;99.90
47521;DHT22;32291;52.010;4.446;2023-04-01T00:28:11;9.30;99.90
47521;DHT22;32291;52.010;4.446;2023-04-01T00:29:13;9.30;99.90
47521;DHT22;32291;52.010;4.446;2023-04-01T00:30:15;9.30;99.90
47521;DHT22;32291;52.010;4.446;2023-04-01T00:31:17;9.30;99.90
47521;DHT22;32291;52.010;4.446;2023-04-01T00:32:18;9.30;99.90
47521;DHT22;32291;52.010;4.446;2023-04-01T00:33:20;9.30;99.90
47521;DHT22;32291;52.010;4.446;2023-04-01T00:34:22;9.30;99.90
47521;DHT22;32291;52.010;4.446;2023-04-01T00:35:24;9.20;99.90
47521;DHT22;32291;52.010;4.446;2023-04-01T00:36:26;9.30;99.90
47521;DHT22;32291;52.010;4.446;2023-04-01T00:37:28;9.30;99.90
47521;DHT22;32291;52.010;4.446;2023-04-01T00:38:30;9.30;99.90
47521;DHT22;32291;52.010;4.446;2023-04-01T00:39:34;9.30;99.90
47521;DHT22;32291;52.010;4.446;2023-04-01T00:40:41;9.20;99.90
47521;DHT22;32291;52.010;4.446;2023-04-01T00:41:43;9.20;99.90
47521;DHT22;32291;52.010;4.446;2023-04-01T00:42:45;9.20;99.90
47521;DHT22;32291;52.010;4.446;2023-04-01T00:43:49;9.30;99.90
47521;DHT22;32291;52.010;4.446;2023-04-01T00:44:54;9.20;99.90
47521;DHT22;32291;52.010;4.446;2023-04-01T00:45:56;9.30;99.90
47521;DHT22;32291;52.010;4.446;2023-04-01T00:46:58;9.20;99.90
47521;DHT22;32291;52.010;4.446;2023-04-01T00:48:06;9.20;99.90
47521;DHT22;32291;52.010;4.446;2023-04-01T00:49:12;9.20;99.90
47521;DHT22;32291;52.010;4.446;2023-04-01T00:50:15;9.20;99.90
47521;DHT22;32291;52.010;4.446;2023-04-01T00:51:22;9.20;99.90
47521;DHT22;32291;52.010;4.446;2023-04-01T00:52:27;9.20;99.90
47521;DHT22;32291;52.010;4.446;2023-04-01T00:53:30;9.20;99.90
47521;DHT22;32291;52.010;4.446;2023-04-01T00:54:34;9.20;99.90
47521;DHT22;32291;52.010;4.446;2023-04-01T00:55:41;9.20;99.90
47521;DHT22;32291;52.010;4.446;2023-04-01T00:57:02;9.20;99.90
47521;DHT22;32291;52.010;4.446;2023-04-01T00:58:13;9.20;99.90
47521;DHT22;32291;52.010;4.446;2023-04-01T00:59:28;9.20;99.90
47521;DHT22;32291;52.010;4.446;2023-04-01T01:00:34;9.20;99.90
47521;DHT22;32291;52.010;4.446;2023-04-01T01:01:37;9.20;99.90
47521;DHT22;32291;52.010;4.446;2023-04-01T01:02:41;9.20;99.90
47521;DHT22;32291;52.010;4.446;2023-04-01T01:03:45;9.20;99.90
47521;DHT22;32291;52.010;4.446;2023-04-01T01:04:47;9.20;99.90
47521;DHT22;32291;52.010;4.446;2023-04-01T01:07:58;9.20;99.90
47521;DHT22;32291;52.010;4.446;2023-04-01T01:10:57;9.20;99.90
47521;DHT22;32291;52.010;4.446;2023-04-01T01:12:20;9.20;99.90
47521;DHT22;32291;52.010;4.446;2023-04-01T01:13:39;9.20;99.90
47521;DHT22;32291;52.010;4.446;2023-04-01T01:15:02;9.20;99.90
47521;DHT22;32291;52.010;4.446;2023-04-01T01:16:29;9.20;99.90
47521;DHT22;32291;52.010;4.446;2023-04-01T01:17:44;9.20;99.90
47521;DHT22;32291;52.010;4.446;2023-04-01T01:19:13;9.20;99.90
47521;DHT22;32291;52.010;4.446;2023-04-01T01:27:38;9.20;99.90
47521;DHT22;32291;52.010;4.446;2023-04-01T01:29:07;9.10;99.90
47521;DHT22;32291;52.010;4.446;2023-04-01T01:30:39;9.10;99.90
47521;DHT22;32291;52.010;4.446;2023-04-01T01:32:07;9.10;99.90
47521;DHT22;32291;52.010;4.446;2023-04-01T01:36:31;9.20;99.90
47521;DHT22;32291;52.010;4.446;2023-04-01T01:37:39;9.20;99.90
47521;DHT22;32291;52.010;4.446;2023-04-01T01:38:44;9.20;99.90
47521;DHT22;32291;52.010;4.446;2023-04-01T01:39:55;9.10;99.90
47521;DHT22;32291;52.010;4.446;2023-04-01T01:41:01;9.20;99.90
47521;DHT22;32291;52.010;4.446;2023-04-01T01:42:08;9.10;99.90
47521;DHT22;32291;52.010;4.446;2023-04-01T01:43:17;9.10;99.90
47521;DHT22;32291;52.010;4.446;2023-04-01T01:44:26;9.20;99.90
47521;DHT22;32291;52.010;4.446;2023-04-01T01:45:32;9.10;99.90
47521;DHT22;32291;52.010;4.446;2023-04-01T01:46:38;9.20;99.90
47521;DHT22;32291;52.010;4.446;2023-04-01T01:47:42;9.20;99.90
47521;DHT22;32291;52.010;4.446;2023-04-01T01:48:47;9.20;99.90
47521;DHT22;32291;52.010;4.446;2023-04-01T01:49:53;9.20;99.90
47521;DHT22;32291;52.010;4.446;2023-04-01T01:50:57;9.20;99.90
47521;DHT22;32291;52.010;4.446;2023-04-01T01:51:59;9.20;99.90
47521;DHT22;32291;52.010;4.446;2023-04-01T01:53:06;9.20;99.90
47521;DHT22;32291;52.010;4.446;2023-04-01T01:54:16;9.20;99.90
47521;DHT22;32291;52.010;4.446;2023-04-01T01:55:28;9.20;99.90
47521;DHT22;32291;52.010;4.446;2023-04-01T01:56:34;9.20;99.90
47521;DHT22;32291;52.010;4.446;2023-04-01T01:57:38;9.20;99.90
47521;DHT22;32291;52.010;4.446;2023-04-01T01:58:47;9.20;99.90
47521;DHT22;32291;52.010;4.446;2023-04-01T01:59:54;9.20;99.90
47521;DHT22;32291;52.010;4.446;2023-04-01T02:01:02;9.20;99.90
47521;DHT22;32291;52.010;4.446;2023-04-01T02:02:08;9.20;99.90
47521;DHT22;32291;52.010;4.446;2023-04-01T02:03:13;9.20;99.90
47521;DHT22;32291;52.010;4.446;2023-04-01T02:04:18;9.20;99.90
47521;DHT22;32291;52.010;4.446;2023-04-01T02:05:24;9.20;99.90
47521;DHT22;32291;52.010;4.446;2023-04-01T02:06:30;9.20;99.90
47521;DHT22;32291;52.010;4.446;2023-04-01T02:07:37;9.20;99.90
47521;DHT22;32291;52.010;4.446;2023-04-01T02:09:01;9.20;99.90
47521;DHT22;32291;52.010;4.446;2023-04-01T02:10:06;9.20;99.90
47521;DHT22;32291;52.010;4.446;2023-04-01T02:11:11;9.20;99.90
47521;DHT22;32291;52.010;4.446;2023-04-01T02:12:16;9.20;99.90
47521;DHT22;32291;52.010;4.446;2023-04-01T02:13:27;9.20;99.90
47521;DHT22;32291;52.010;4.446;2023-04-01T02:14:54;9.20;99.90
47521;DHT22;32291;52.010;4.446;2023-04-01T02:16:07;9.20;99.90
47521;DHT22;32291;52.010;4.446;2023-04-01T02:17:18;9.20;99.90
47521;DHT22;32291;52.010;4.446;2023-04-01T02:18:22;9.20;99.90
47521;DHT22;32291;52.010;4.446;2023-04-01T02:19:30;9.20;99.90
47521;DHT22;32291;52.010;4.446;2023-04-01T02:20:38;9.20;99.90
47521;DHT22;32291;52.010;4.446;2023-04-01T02:21:41;9.20;99.90
47521;DHT22;32291;52.010;4.446;2023-04-01T02:22:48;9.20;99.90
47521;DHT22;32291;52.010;4.446;2023-04-01T02:23:54;9.20;99.90
47521;DHT22;32291;52.010;4.446;2023-04-01T02:25:01;9.20;99.90
47521;DHT22;32291;52.010;4.446;2023-04-01T02:26:10;9.20;99.90
47521;DHT22;32291;52.010;4.446;2023-04-01T02:27:13;9.20;99.90
47521;DHT22;32291;52.010;4.446;2023-04-01T02:28:17;9.20;99.90
47521;DHT22;32291;52.010;4.446;2023-04-01T02:29:23;9.20;99.90
47521;DHT22;32291;52.010;4.446;2023-04-01T02:30:29;9.20;99.90
47521;DHT22;32291;52.010;4.446;2023-04-01T02:31:35;9.20;99.90
47521;DHT22;32291;52.010;4.446;2023-04-01T02:32:37;9.20;99.90
47521;DHT22;32291;52.010;4.446;2023-04-01T02:33:41;9.20;99.90
47521;DHT22;32291;52.010;4.446;2023-04-01T02:34:43;9.20;99.90
47521;DHT22;32291;52.010;4.446;2023-04-01T02:35:45;9.20;99.90
47521;DHT22;32291;52.010;4.446;2023-04-01T02:36:49;9.10;99.90
47521;DHT22;32291;52.010;4.446;2023-04-01T02:37:54;9.20;99.90
47521;DHT22;32291;52.010;4.446;2023-04-01T02:38:57;9.20;99.90
47521;DHT22;32291;52.010;4.446;2023-04-01T02:40:06;9.20;99.90
47521;DHT22;32291;52.010;4.446;2023-04-01T02:41:09;9.20;99.90
47521;DHT22;32291;52.010;4.446;2023-04-01T02:42:10;9.20;99.90
47521;DHT22;32291;52.010;4.446;2023-04-01T02:43:12;9.20;99.90
47521;DHT22;32291;52.010;4.446;2023-04-01T02:44:15;9.20;99.90
47521;DHT22;32291;52.010;4.446;2023-04-01T02:45:20;9.20;99.90
47521;DHT22;32291;52.010;4.446;2023-04-01T02:46:21;9.20;99.90
47521;DHT22;32291;52.010;4.446;2023-04-01T02:47:23;9.30;99.90
47521;DHT22;32291;52.010;4.446;2023-04-01T02:48:24;9.30;99.90
47521;DHT22;32291;52.010;4.446;2023-04-01T02:49:26;9.20;99.90
47521;DHT22;32291;52.010;4.446;2023-04-01T02:50:28;9.20;99.90
47521;DHT22;32291;52.010;4.446;2023-04-01T02:51:30;9.20;99.90
47521;DHT22;32291;52.010;4.446;2023-04-01T02:52:33;9.20;99.90
47521;DHT22;32291;52.010;4.446;2023-04-01T02:53:34;9.20;99.90
47521;DHT22;32291;52.010;4.446;2023-04-01T02:54:38;9.20;99.90
47521;DHT22;32291;52.010;4.446;2023-04-01T02:55:39;9.30;99.90
47521;DHT22;32291;52.010;4.446;2023-04-01T02:56:41;9.20;99.90
47521;DHT22;32291;52.010;4.446;2023-04-01T02:57:42;9.20;99.90
47521;DHT22;32291;52.010;4.446;2023-04-01T02:58:44;9.20;99.90
47521;DHT22;32291;52.010;4.446;2023-04-01T02:59:46;9.20;99.90
47521;DHT22;32291;52.010;4.446;2023-04-01T03:00:48;9.20;99.90
47521;DHT22;32291;52.010;4.446;2023-04-01T03:01:51;9.30;99.90
47521;DHT22;32291;52.010;4.446;2023-04-01T03:02:53;9.30;99.90
47521;DHT22;32291;52.010;4.446;2023-04-01T03:03:54;9.30;99.90
47521;DHT22;32291;52.010;4.446;2023-04-01T03:04:56;9.20;99.90
47521;DHT22;32291;52.010;4.446;2023-04-01T03:05:57;9.30;99.90
47521;DHT22;32291;52.010;4.446;2023-04-01T03:07:01;9.20;99.90
47521;DHT22;32291;52.010;4.446;2023-04-01T03:08:04;9.30;99.90
47521;DHT22;32291;52.010;4.446;2023-04-01T03:09:06;9.30;99.90
47521;DHT22;32291;52.010;4.446;2023-04-01T03:10:08;9.30;99.90
47521;DHT22;32291;52.010;4.446;2023-04-01T03:11:10;9.30;99.90
47521;DHT22;32291;52.010;4.446;2023-04-01T03:12:13;9.30;99.90
47521;DHT22;32291;52.010;4.446;2023-04-01T03:13:15;9.30;99.90
47521;DHT22;32291;52.010;4.446;2023-04-01T03:14:20;9.30;99.90
47521;DHT22;32291;52.010;4.446;2023-04-01T03:15:22;9.30;99.90
47521;DHT22;32291;52.010;4.446;2023-04-01T03:16:23;9.30;99.90
47521;DHT22;32291;52.010;4.446;2023-04-01T03:17:25;9.40;99.90
47521;DHT22;32291;52.010;4.446;2023-04-01T03:18:27;9.30;99.90
47521;DHT22;32291;52.010;4.446;2023-04-01T03:19:28;9.30;99.90
47521;DHT22;32291;52.010;4.446;2023-04-01T03:20:30;9.30;99.90
47521;DHT22;32291;52.010;4.446;2023-04-01T03:21:32;9.30;99.90
47521;DHT22;32291;52.010;4.446;2023-04-01T03:22:34;9.40;99.90
47521;DHT22;32291;52.010;4.446;2023-04-01T03:23:36;9.30;99.90
47521;DHT22;32291;52.010;4.446;2023-04-01T03:24:38;9.40;99.90
47521;DHT22;32291;52.010;4.446;2023-04-01T03:25:40;9.40;99.90
47521;DHT22;32291;52.010;4.446;2023-04-01T03:26:41;9.40;99.90
47521;DHT22;32291;52.010;4.446;2023-04-01T03:27:43;9.40;99.90
47521;DHT22;32291;52.010;4.446;2023-04-01T03:28:45;9.40;99.90
47521;DHT22;32291;52.010;4.446;2023-04-01T03:29:46;9.40;99.90
47521;DHT22;32291;52.010;4.446;2023-04-01T03:30:48;9.40;99.90
47521;DHT22;32291;52.010;4.446;2023-04-01T03:31:50;9.40;99.90
47521;DHT22;32291;52.010;4.446;2023-04-01T03:32:52;9.40;99.90
47521;DHT22;32291;52.010;4.446;2023-04-01T03:33:54;9.40;99.90
47521;DHT22;32291;52.010;4.446;2023-04-01T03:34:56;9.30;99.90
47521;DHT22;32291;52.010;4.446;2023-04-01T03:35:58;9.30;99.90
47521;DHT22;32291;52.010;4.446;2023-04-01T03:36:59;9.30;99.90
47521;DHT22;32291;52.010;4.446;2023-04-01T03:38:01;9.30;99.90
47521;DHT22;32291;52.010;4.446;2023-04-01T03:39:03;9.30;99.90
47521;DHT22;32291;52.010;4.446;2023-04-01T03:40:05;9.40;99.90
47521;DHT22;32291;52.010;4.446;2023-04-01T03:41:12;9.40;99.90
47521;DHT22;32291;52.010;4.446;2023-04-01T03:42:18;9.30;99.90
47521;DHT22;32291;52.010;4.446;2023-04-01T03:43:20;9.40;99.90
47521;DHT22;32291;52.010;4.446;2023-04-01T03:44:22;9.40;99.90
47521;DHT22;32291;52.010;4.446;2023-04-01T03:45:24;9.40;99.90
47521;DHT22;32291;52.010;4.446;2023-04-01T03:46:25;9.40;99.90
47521;DHT22;32291;52.010;4.446;2023-04-01T03:47:27;9.30;99.90
47521;DHT22;32291;52.010;4.446;2023-04-01T03:48:29;9.30;99.90
47521;DHT22;32291;52.010;4.446;2023-04-01T03:49:31;9.40;99.90
47521;DHT22;32291;52.010;4.446;2023-04-01T03:50:34;9.40;99.90
47521;DHT22;32291;52.010;4.446;2023-04-01T03:51:38;9.30;99.90
47521;DHT22;32291;52.010;4.446;2023-04-01T03:52:40;9.30;99.90
47521;DHT22;32291;52.010;4.446;2023-04-01T03:53:42;9.30;99.90
47521;DHT22;32291;52.010;4.446;2023-04-01T03:54:44;9.30;99.90
47521;DHT22;32291;52.010;4.446;2023-04-01T03:55:45;9.40;99.90
47521;DHT22;32291;52.010;4.446;2023-04-01T03:56:47;9.40;99.90
47521;DHT22;32291;52.010;4.446;2023-04-01T03:57:49;9.40;99.90
47521;DHT22;32291;52.010;4.446;2023-04-01T03:58:51;9.40;99.90
47521;DHT22;32291;52.010;4.446;2023-04-01T03:59:52;9.40;99.90
47521;DHT22;32291;52.010;4.446;2023-04-01T04:00:54;9.40;99.90
47521;DHT22;32291;52.010;4.446;2023-04-01T04:01:57;9.40;99.90
47521;DHT22;32291;52.010;4.446;2023-04-01T04:02:59;9.30;99.90
47521;DHT22;32291;52.010;4.446;2023-04-01T04:04:02;9.30;99.90
47521;DHT22;32291;52.010;4.446;2023-04-01T04:05:03;9.30;99.90
47521;DHT22;32291;52.010;4.446;2023-04-01T04:06:07;9.30;99.90
47521;DHT22;32291;52.010;4.446;2023-04-01T04:07:12;9.30;99.90
47521;DHT22;32291;52.010;4.446;2023-04-01T04:08:14;9.30;99.90
47521;DHT22;32291;52.010;4.446;2023-04-01T04:09:16;9.30;99.90
47521;DHT22;32291;52.010;4.446;2023-04-01T04:10:18;9.30;99.90
47521;DHT22;32291;52.010;4.446;2023-04-01T04:11:21;9.30;99.90
47521;DHT22;32291;52.010;4.446;2023-04-01T04:12:23;9.30;99.90
47521;DHT22;32291;52.010;4.446;2023-04-01T04:13:25;9.30;99.90
47521;DHT22;32291;52.010;4.446;2023-04-01T04:14:26;9.30;99.90
47521;DHT22;32291;52.010;4.446;2023-04-01T04:15:28;9.30;99.90
47521;DHT22;32291;52.010;4.446;2023-04-01T04:16:30;9.40;99.90
47521;DHT22;32291;52.010;4.446;2023-04-01T04:17:32;9.30;99.90
47521;DHT22;32291;52.010;4.446;2023-04-01T04:18:34;9.30;99.90
47521;DHT22;32291;52.010;4.446;2023-04-01T04:19:36;9.30;99.90
47521;DHT22;32291;52.010;4.446;2023-04-01T04:20:45;9.30;99.90
47521;DHT22;32291;52.010;4.446;2023-04-01T04:21:52;9.30;99.90
47521;DHT22;32291;52.010;4.446;2023-04-01T04:22:53;9.30;99.90
47521;DHT22;32291;52.010;4.446;2023-04-01T04:23:55;9.30;99.90
47521;DHT22;32291;52.010;4.446;2023-04-01T04:24:57;9.30;99.90
47521;DHT22;32291;52.010;4.446;2023-04-01T04:26:05;9.30;99.90
47521;DHT22;32291;52.010;4.446;2023-04-01T04:27:09;9.30;99.90
47521;DHT22;32291;52.010;4.446;2023-04-01T04:28:10;9.30;99.90
47521;DHT22;32291;52.010;4.446;2023-04-01T04:29:12;9.30;99.90
47521;DHT22;32291;52.010;4.446;2023-04-01T04:30:13;9.30;99.90
47521;DHT22;32291;52.010;4.446;2023-04-01T04:31:20;9.30;99.90
47521;DHT22;32291;52.010;4.446;2023-04-01T04:32:23;9.30;99.90
47521;DHT22;32291;52.010;4.446;2023-04-01T04:33:25;9.30;99.90
47521;DHT22;32291;52.010;4.446;2023-04-01T04:34:27;9.30;99.90
47521;DHT22;32291;52.010;4.446;2023-04-01T04:35:28;9.20;99.90
47521;DHT22;32291;52.010;4.446;2023-04-01T04:36:31;9.20;99.90
47521;DHT22;32291;52.010;4.446;2023-04-01T04:37:33;9.20;99.90
47521;DHT22;32291;52.010;4.446;2023-04-01T04:38:34;9.30;99.90
47521;DHT22;32291;52.010;4.446;2023-04-01T04:39:36;9.30;99.90
47521;DHT22;32291;52.010;4.446;2023-04-01T04:40:39;9.30;99.90
47521;DHT22;32291;52.010;4.446;2023-04-01T04:41:41;9.30;99.90
47521;DHT22;32291;52.010;4.446;2023-04-01T04:42:43;9.30;99.90
47521;DHT22;32291;52.010;4.446;2023-04-01T04:43:53;9.30;99.90
47521;DHT22;32291;52.010;4.446;2023-04-01T04:44:56;9.30;99.90
47521;DHT22;32291;52.010;4.446;2023-04-01T04:45:58;9.30;99.90
47521;DHT22;32291;52.010;4.446;2023-04-01T04:47:00;9.30;99.90
47521;DHT22;32291;52.010;4.446;2023-04-01T04:48:03;9.30;99.90
47521;DHT22;32291;52.010;4.446;2023-04-01T04:49:05;9.20;99.90
47521;DHT22;32291;52.010;4.446;2023-04-01T04:50:08;9.30;99.90
47521;DHT22;32291;52.010;4.446;2023-04-01T04:51:16;9.20;99.90
47521;DHT22;32291;52.010;4.446;2023-04-01T04:52:19;9.30;99.90
47521;DHT22;32291;52.010;4.446;2023-04-01T04:53:21;9.30;99.90
47521;DHT22;32291;52.010;4.446;2023-04-01T04:54:23;9.30;99.90
47521;DHT22;32291;52.010;4.446;2023-04-01T04:55:25;9.20;99.90
47521;DHT22;32291;52.010;4.446;2023-04-01T04:56:27;9.20;99.90
47521;DHT22;32291;52.010;4.446;2023-04-01T04:57:28;9.20;99.90
47521;DHT22;32291;52.010;4.446;2023-04-01T04:58:30;9.20;99.90
47521;DHT22;32291;52.010;4.446;2023-04-01T04:59:32;9.20;99.90
47521;DHT22;32291;52.010;4.446;2023-04-01T05:00:34;9.20;99.90
47521;DHT22;32291;52.010;4.446;2023-04-01T05:01:36;9.20;99.90
47521;DHT22;32291;52.010;4.446;2023-04-01T05:02:37;9.20;99.90
47521;DHT22;32291;52.010;4.446;2023-04-01T05:03:39;9.20;99.90
47521;DHT22;32291;52.010;4.446;2023-04-01T05:04:42;9.20;99.90
47521;DHT22;32291;52.010;4.446;2023-04-01T05:05:51;9.20;99.90
47521;DHT22;32291;52.010;4.446;2023-04-01T05:06:54;9.20;99.90
47521;DHT22;32291;52.010;4.446;2023-04-01T05:07:56;9.20;99.90
47521;DHT22;32291;52.010;4.446;2023-04-01T05:08:58;9.20;99.90
47521;DHT22;32291;52.010;4.446;2023-04-01T05:09:59;9.20;99.90
47521;DHT22;32291;52.010;4.446;2023-04-01T05:11:02;9.20;99.90
47521;DHT22;32291;52.010;4.446;2023-04-01T05:12:04;9.20;99.90
47521;DHT22;32291;52.010;4.446;2023-04-01T05:13:06;9.10;99.90
47521;DHT22;32291;52.010;4.446;2023-04-01T05:14:13;9.10;99.90
47521;DHT22;32291;52.010;4.446;2023-04-01T05:15:18;9.10;99.90
47521;DHT22;32291;52.010;4.446;2023-04-01T05:16:20;9.10;99.90
47521;DHT22;32291;52.010;4.446;2023-04-01T05:17:22;9.10;99.90
47521;DHT22;32291;52.010;4.446;2023-04-01T05:18:24;9.10;99.90
47521;DHT22;32291;52.010;4.446;2023-04-01T05:19:26;9.20;99.90
47521;DHT22;32291;52.010;4.446;2023-04-01T05:20:27;9.10;99.90
47521;DHT22;32291;52.010;4.446;2023-04-01T05:21:29;9.20;99.90
47521;DHT22;32291;52.010;4.446;2023-04-01T05:22:31;9.20;99.90
47521;DHT22;32291;52.010;4.446;2023-04-01T05:23:33;9.20;99.90
47521;DHT22;32291;52.010;4.446;2023-04-01T05:24:35;9.20;99.90
47521;DHT22;32291;52.010;4.446;2023-04-01T05:25:38;9.10;99.90
47521;DHT22;32291;52.010;4.446;2023-04-01T05:26:39;9.10;99.90
47521;DHT22;32291;52.010;4.446;2023-04-01T05:27:41;9.10;99.90
47521;DHT22;32291;52.010;4.446;2023-04-01T05:28:43;9.10;99.90
47521;DHT22;32291;52.010;4.446;2023-04-01T05:29:44;9.20;99.90
47521;DHT22;32291;52.010;4.446;2023-04-01T05:30:46;9.10;99.90
47521;DHT22;32291;52.010;4.446;2023-04-01T05:31:48;9.20;99.90
47521;DHT22;32291;52.010;4.446;2023-04-01T05:32:49;9.20;99.90
47521;DHT22;32291;52.010;4.446;2023-04-01T05:33:51;9.10;99.90
47521;DHT22;32291;52.010;4.446;2023-04-01T05:34:54;9.10;99.90
47521;DHT22;32291;52.010;4.446;2023-04-01T05:35:56;9.20;99.90
47521;DHT22;32291;52.010;4.446;2023-04-01T05:37:06;9.20;99.90
47521;DHT22;32291;52.010;4.446;2023-04-01T05:38:09;9.10;99.90
47521;DHT22;32291;52.010;4.446;2023-04-01T05:39:11;9.20;99.90
47521;DHT22;32291;52.010;4.446;2023-04-01T05:40:12;9.10;99.90
47521;DHT22;32291;52.010;4.446;2023-04-01T05:41:14;9.10;99.90
47521;DHT22;32291;52.010;4.446;2023-04-01T05:42:16;9.10;99.90
47521;DHT22;32291;52.010;4.446;2023-04-01T05:43:18;9.10;99.90
47521;DHT22;32291;52.010;4.446;2023-04-01T05:44:20;9.10;99.90
47521;DHT22;32291;52.010;4.446;2023-04-01T05:45:21;9.10;99.90
47521;DHT22;32291;52.010;4.446;2023-04-01T05:46:23;9.10;99.90
47521;DHT22;32291;52.010;4.446;2023-04-01T05:47:25;9.10;99.90
47521;DHT22;32291;52.010;4.446;2023-04-01T05:48:27;9.10;99.90
47521;DHT22;32291;52.010;4.446;2023-04-01T05:49:28;9.10;99.90
47521;DHT22;32291;52.010;4.446;2023-04-01T05:50:30;9.10;99.90
47521;DHT22;32291;52.010;4.446;2023-04-01T05:51:32;9.10;99.90
47521;DHT22;32291;52.010;4.446;2023-04-01T05:52:34;9.10;99.90
47521;DHT22;32291;52.010;4.446;2023-04-01T05:53:35;9.10;99.90
47521;DHT22;32291;52.010;4.446;2023-04-01T05:54:37;9.10;99.90
47521;DHT22;32291;52.010;4.446;2023-04-01T05:55:39;9.10;99.90
47521;DHT22;32291;52.010;4.446;2023-04-01T05:56:40;9.10;99.90
47521;DHT22;32291;52.010;4.446;2023-04-01T05:57:42;9.10;99.90
47521;DHT22;32291;52.010;4.446;2023-04-01T05:58:50;9.10;99.90
47521;DHT22;32291;52.010;4.446;2023-04-01T05:59:53;9.10;99.90
47521;DHT22;32291;52.010;4.446;2023-04-01T06:01:10;9.10;99.90
47521;DHT22;32291;52.010;4.446;2023-04-01T06:02:12;9.10;99.90
47521;DHT22;32291;52.010;4.446;2023-04-01T06:03:18;9.10;99.90
47521;DHT22;32291;52.010;4.446;2023-04-01T06:04:20;9.10;99.90
47521;DHT22;32291;52.010;4.446;2023-04-01T06:05:24;9.10;99.90
47521;DHT22;32291;52.010;4.446;2023-04-01T06:06:31;9.10;99.90
47521;DHT22;32291;52.010;4.446;2023-04-01T06:07:33;9.10;99.90
47521;DHT22;32291;52.010;4.446;2023-04-01T06:08:35;9.00;99.90
47521;DHT22;32291;52.010;4.446;2023-04-01T06:09:36;9.00;99.90
47521;DHT22;32291;52.010;4.446;2023-04-01T06:12:18;9.10;99.90
47521;DHT22;32291;52.010;4.446;2023-04-01T06:15:59;9.10;99.90
47521;DHT22;32291;52.010;4.446;2023-04-01T06:24:01;9.10;99.90
47521;DHT22;32291;52.010;4.446;2023-04-01T06:30:29;9.10;99.90
47521;DHT22;32291;52.010;4.446;2023-04-01T06:37:04;9.20;99.90
47521;DHT22;32291;52.010;4.446;2023-04-01T06:42:54;9.10;99.90
47521;DHT22;32291;52.010;4.446;2023-04-01T06:47:17;9.30;99.90
47521;DHT22;32291;52.010;4.446;2023-04-01T06:50:28;9.40;99.90
47521;DHT22;32291;52.010;4.446;2023-04-01T06:56:42;9.60;99.90
47521;DHT22;32291;52.010;4.446;2023-04-01T06:57:50;9.50;99.90
47521;DHT22;32291;52.010;4.446;2023-04-01T06:59:27;9.50;99.90
47521;DHT22;32291;52.010;4.446;2023-04-01T07:00:39;9.30;99.90
47521;DHT22;32291;52.010;4.446;2023-04-01T07:01:49;9.50;99.90
47521;DHT22;32291;52.010;4.446;2023-04-01T07:03:00;9.50;99.90
47521;DHT22;32291;52.010;4.446;2023-04-01T07:04:31;9.50;99.90
47521;DHT22;32291;52.010;4.446;2023-04-01T07:05:36;9.50;99.90
47521;DHT22;32291;52.010;4.446;2023-04-01T07:06:50;9.50;99.90
47521;DHT22;32291;52.010;4.446;2023-04-01T07:08:00;9.50;99.90
47521;DHT22;32291;52.010;4.446;2023-04-01T07:09:12;9.60;99.90
47521;DHT22;32291;52.010;4.446;2023-04-01T07:11:53;9.60;99.90
47521;DHT22;32291;52.010;4.446;2023-04-01T07:13:04;9.60;99.90
47521;DHT22;32291;52.010;4.446;2023-04-01T07:14:21;9.60;99.90
47521;DHT22;32291;52.010;4.446;2023-04-01T07:15:37;9.60;99.90
47521;DHT22;32291;52.010;4.446;2023-04-01T07:16:53;9.60;99.90
47521;DHT22;32291;52.010;4.446;2023-04-01T07:18:12;9.60;99.90
47521;DHT22;32291;52.010;4.446;2023-04-01T07:19:39;9.60;99.90
47521;DHT22;32291;52.010;4.446;2023-04-01T07:20:46;9.70;99.90
47521;DHT22;32291;52.010;4.446;2023-04-01T07:21:54;9.70;99.90
47521;DHT22;32291;52.010;4.446;2023-04-01T07:23:03;9.70;99.90
47521;DHT22;32291;52.010;4.446;2023-04-01T07:24:17;9.70;99.90
47521;DHT22;32291;52.010;4.446;2023-04-01T07:25:31;9.70;99.90
47521;DHT22;32291;52.010;4.446;2023-04-01T07:26:36;9.70;99.90
47521;DHT22;32291;52.010;4.446;2023-04-01T07:27:38;9.70;99.90
47521;DHT22;32291;52.010;4.446;2023-04-01T07:28:39;9.70;99.90
47521;DHT22;32291;52.010;4.446;2023-04-01T07:29:41;9.70;99.90
47521;DHT22;32291;52.010;4.446;2023-04-01T07:38:11;9.60;99.90
47521;DHT22;32291;52.010;4.446;2023-04-01T07:39:37;9.60;99.90
47521;DHT22;32291;52.010;4.446;2023-04-01T07:43:58;9.60;99.90
47521;DHT22;32291;52.010;4.446;2023-04-01T07:45:57;9.60;99.90
47521;DHT22;32291;52.010;4.446;2023-04-01T07:49:14;9.60;99.90
47521;DHT22;32291;52.010;4.446;2023-04-01T07:51:32;9.60;99.90
47521;DHT22;32291;52.010;4.446;2023-04-01T07:53:20;9.60;99.90
47521;DHT22;32291;52.010;4.446;2023-04-01T07:54:47;9.50;99.90
47521;DHT22;32291;52.010;4.446;2023-04-01T07:56:08;9.50;99.90
47521;DHT22;32291;52.010;4.446;2023-04-01T08:06:19;9.80;99.90
47521;DHT22;32291;52.010;4.446;2023-04-01T08:09:36;9.80;99.90
47521;DHT22;32291;52.010;4.446;2023-04-01T08:11:00;9.90;99.90
47521;DHT22;32291;52.010;4.446;2023-04-01T08:13:54;10.00;99.90
47521;DHT22;32291;52.010;4.446;2023-04-01T08:15:20;10.00;99.90
47521;DHT22;32291;52.010;4.446;2023-04-01T08:16:56;10.00;99.90
47521;DHT22;32291;52.010;4.446;2023-04-01T08:18:20;10.00;99.90
47521;DHT22;32291;52.010;4.446;2023-04-01T08:22:48;10.00;99.90